Time;durP1;ratioP1;P1;durP2;ratioP2;P2;SDS_P1;SDS_P2;PMS_P1;PMS_P2;Temp;Humidity;BMP_temperature;BMP_pressure;BME280_temperature;BME280_humidity;BME280_pressure;Samples;Min_cycle;Max_cycle;Signal;HPM_P1;HPM_P2
2024/03/13 00:01:00;;;;;;;8.25;6.30;;;10.40;99.90;;;;;;5039683;28;20028;-35
2024/03/13 00:03:26;;;;;;;7.32;6.53;;;10.40;99.90;;;;;;5039473;28;20025;-36
2024/03/13 00:05:53;;;;;;;8.25;5.88;;;10.40;99.90;;;;;;5040211;28;20068;-34
2024/03/13 00:08:19;;;;;;;8.65;6.45;;;10.40;99.90;;;;;;5038825;28;20123;-36
2024/03/13 00:10:46;;;;;;;6.47;5.60;;;10.40;99.90;;;;;;5040234;28;20050;-33
2024/03/13 00:13:12;;;;;;;8.18;6.13;;;10.40;99.90;;;;;;5040248;28;20062;-35
2024/03/13 00:15:38;;;;;;;8.60;6.53;;;10.40;99.90;;;;;;5039502;28;20385;-35
2024/03/13 00:18:04;;;;;;;8.07;6.18;;;10.30;99.90;;;;;;5039839;28;20048;-31
2024/03/13 00:20:30;;;;;;;6.32;5.70;;;10.30;99.90;;;;;;5040379;28;20032;-32
2024/03/13 00:23:02;;;;;;;7.35;6.40;;;10.30;99.90;;;;;;5039879;28;20037;-32
2024/03/13 00:25:28;;;;;;;6.75;6.03;;;10.30;99.90;;;;;;5040048;28;20415;-36
2024/03/13 00:27:55;;;;;;;6.78;5.32;;;10.30;99.90;;;;;;5039028;28;20029;-36
2024/03/13 00:30:21;;;;;;;6.82;5.65;;;10.30;99.90;;;;;;5039489;28;20025;-33
2024/03/13 00:32:52;;;;;;;7.28;5.47;;;10.30;99.90;;;;;;5039713;28;20033;-35
2024/03/13 00:35:18;;;;;;;6.05;5.45;;;10.30;99.90;;;;;;5039632;28;20083;-31
2024/03/13 00:37:44;;;;;;;6.03;5.40;;;10.30;99.90;;;;;;5039331;28;20033;-33
2024/03/13 00:40:16;;;;;;;5.22;4.72;;;10.30;99.90;;;;;;5039845;28;20076;-33
2024/03/13 00:42:42;;;;;;;5.68;5.07;;;10.30;99.90;;;;;;5039719;28;20032;-34
2024/03/13 00:45:10;;;;;;;5.82;4.85;;;10.30;99.90;;;;;;5040466;28;20017;-35
2024/03/13 00:47:36;;;;;;;5.45;4.95;;;10.30;99.90;;;;;;5040305;28;20021;-33
2024/03/13 00:50:07;;;;;;;5.45;4.88;;;10.30;99.90;;;;;;5040241;28;20029;-34
2024/03/13 00:52:33;;;;;;;5.22;4.72;;;10.30;99.90;;;;;;5040586;28;20102;-35
2024/03/13 00:54:58;;;;;;;5.63;5.00;;;10.30;99.90;;;;;;5040037;28;20139;-35
2024/03/13 00:57:24;;;;;;;5.47;4.70;;;10.30;99.90;;;;;;5038237;28;20044;-33
2024/03/13 00:59:50;;;;;;;5.50;5.00;;;10.30;99.90;;;;;;5040252;28;20021;-35
2024/03/13 01:02:15;;;;;;;5.22;4.72;;;10.30;99.90;;;;;;5039829;28;20035;-36
2024/03/13 01:04:42;;;;;;;5.57;5.07;;;10.30;99.90;;;;;;5039003;28;20132;-34
2024/03/13 01:07:08;;;;;;;5.80;5.20;;;10.20;99.90;;;;;;5039868;28;20033;-36
2024/03/13 01:09:34;;;;;;;5.28;4.75;;;10.20;99.90;;;;;;5039627;28;20037;-33
2024/03/13 01:12:00;;;;;;;5.85;4.97;;;10.20;99.90;;;;;;5039191;28;20801;-35
2024/03/13 01:14:26;;;;;;;5.05;4.55;;;10.20;99.90;;;;;;5039163;28;20017;-32
2024/03/13 01:16:53;;;;;;;5.97;5.40;;;10.20;99.90;;;;;;5040707;28;20070;-33
2024/03/13 01:19:23;;;;;;;5.13;4.63;;;10.30;99.90;;;;;;5038553;28;20449;-34
2024/03/13 01:21:53;;;;;;;5.63;5.13;;;10.30;99.90;;;;;;5040892;28;20120;-35
2024/03/13 01:24:19;;;;;;;5.88;5.28;;;10.30;99.90;;;;;;5041762;28;20568;-35
2024/03/13 01:26:45;;;;;;;5.30;4.80;;;10.30;99.90;;;;;;5023139;28;20021;-33
2024/03/13 01:29:11;;;;;;;5.75;5.10;;;10.30;99.90;;;;;;5037654;28;20602;-34
2024/03/13 01:31:37;;;;;;;5.00;4.50;;;10.30;99.90;;;;;;5043258;28;20648;-30
2024/03/13 01:34:04;;;;;;;4.93;4.43;;;10.30;99.90;;;;;;5042662;28;20111;-34
2024/03/13 01:39:17;;;;;;;5.82;5.22;;;10.30;99.90;;;;;;5041918;28;20071;-35
2024/03/13 01:55:44;;;;;;;5.30;4.80;;;10.30;99.90;;;;;;5043033;28;20215;-34
2024/03/13 01:58:19;;;;;;;5.45;4.95;;;10.30;99.90;;;;;;5042349;28;20066;-35
2024/03/13 02:03:31;;;;;;;5.43;4.93;;;10.30;99.90;;;;;;5042913;28;20071;-33
2024/03/13 02:06:04;;;;;;;5.55;5.00;;;10.30;99.90;;;;;;5042890;28;20059;-32
2024/03/13 02:08:30;;;;;;;5.00;4.53;;;10.40;99.90;;;;;;5042133;28;20045;-33
2024/03/13 02:10:58;;;;;;;5.35;4.85;;;10.40;99.90;;;;;;5042756;28;20079;-31
2024/03/13 02:13:26;;;;;;;5.07;4.57;;;10.40;99.90;;;;;;5041924;28;20496;-35
2024/03/13 02:15:53;;;;;;;5.47;4.97;;;10.40;99.90;;;;;;5041301;28;20025;-34
2024/03/13 02:18:28;;;;;;;5.03;4.53;;;10.40;99.90;;;;;;5041889;28;20041;-33
2024/03/13 02:20:53;;;;;;;7.15;4.90;;;10.40;99.90;;;;;;5042221;28;20029;-36
2024/03/13 02:23:19;;;;;;;6.07;5.47;;;10.40;99.90;;;;;;5041990;28;20025;-34
2024/03/13 02:25:44;;;;;;;5.68;5.05;;;10.40;99.90;;;;;;5043159;28;20021;-36
2024/03/13 02:28:10;;;;;;;5.32;4.82;;;10.40;99.90;;;;;;5042210;28;20553;-30
2024/03/13 02:30:36;;;;;;;5.68;5.15;;;10.40;99.90;;;;;;5042584;28;20064;-34
2024/03/13 02:33:01;;;;;;;5.78;4.82;;;10.40;99.90;;;;;;5042354;28;20140;-31
2024/03/13 02:35:27;;;;;;;5.80;5.20;;;10.40;99.90;;;;;;5039708;28;20063;-34
2024/03/13 02:37:54;;;;;;;5.65;5.07;;;10.50;99.90;;;;;;5042014;28;20037;-36
2024/03/13 02:40:20;;;;;;;5.90;5.25;;;10.40;99.90;;;;;;5041685;28;20044;-33
2024/03/13 02:42:46;;;;;;;5.30;4.80;;;10.40;99.90;;;;;;5041764;28;20163;-36
2024/03/13 02:45:13;;;;;;;5.88;5.30;;;10.40;99.90;;;;;;5041857;28;20017;-32
2024/03/13 02:47:41;;;;;;;7.43;5.63;;;10.40;99.90;;;;;;5041584;28;20140;-33
2024/03/13 02:50:11;;;;;;;5.97;5.38;;;10.50;99.90;;;;;;5041914;28;20095;-36
2024/03/13 02:52:40;;;;;;;6.10;5.38;;;10.50;99.90;;;;;;5041218;28;20807;-32
2024/03/13 02:55:07;;;;;;;6.38;5.00;;;10.50;99.90;;;;;;5041416;28;20039;-34
2024/03/13 02:57:33;;;;;;;6.75;5.30;;;10.40;99.90;;;;;;5040219;28;20037;-33
2024/03/13 02:59:59;;;;;;;6.85;5.38;;;10.40;99.90;;;;;;5042386;28;20025;-36
2024/03/13 03:02:25;;;;;;;6.00;5.07;;;10.50;99.90;;;;;;5041518;28;20036;-36
2024/03/13 03:04:54;;;;;;;6.65;5.45;;;10.50;99.90;;;;;;5041224;28;20017;-33
2024/03/13 03:07:19;;;;;;;5.35;4.85;;;10.50;99.90;;;;;;5040793;28;20024;-34
2024/03/13 03:09:45;;;;;;;6.88;5.85;;;10.50;99.90;;;;;;5040949;28;20025;-32
2024/03/13 03:12:12;;;;;;;6.30;5.57;;;10.50;99.90;;;;;;5040027;28;20029;-32
2024/03/13 03:14:41;;;;;;;7.15;5.97;;;10.50;99.90;;;;;;5041166;28;20124;-35
2024/03/13 03:17:06;;;;;;;6.88;6.18;;;10.50;99.90;;;;;;5040837;28;20032;-35
2024/03/13 03:19:34;;;;;;;7.90;6.03;;;10.50;99.90;;;;;;5039943;28;20024;-33
2024/03/13 03:22:00;;;;;;;7.03;5.70;;;10.50;99.90;;;;;;5041165;28;20110;-34
2024/03/13 03:24:29;;;;;;;9.55;6.72;;;10.50;99.90;;;;;;5039292;28;20025;-34
2024/03/13 03:26:55;;;;;;;7.35;6.13;;;10.50;99.90;;;;;;5040832;28;20028;-37
2024/03/13 03:29:21;;;;;;;8.20;6.93;;;10.50;99.90;;;;;;5040595;28;20021;-36
2024/03/13 03:31:47;;;;;;;7.18;6.00;;;10.60;99.90;;;;;;5040733;28;20082;-35
2024/03/13 03:34:13;;;;;;;7.15;6.28;;;10.60;99.90;;;;;;5040503;28;20131;-33
2024/03/13 03:36:40;;;;;;;7.05;6.25;;;10.60;99.90;;;;;;5040942;28;20590;-36
2024/03/13 03:39:10;;;;;;;7.43;5.95;;;10.60;99.90;;;;;;5039661;28;20115;-36
2024/03/13 03:41:36;;;;;;;9.60;6.30;;;10.60;99.90;;;;;;5040612;28;20059;-33
2024/03/13 03:44:02;;;;;;;11.02;6.57;;;10.60;99.90;;;;;;5040421;28;20652;-35
2024/03/13 03:46:28;;;;;;;7.15;6.35;;;10.60;99.90;;;;;;5038446;28;20033;-32
2024/03/13 03:48:53;;;;;;;7.03;6.00;;;10.60;99.90;;;;;;5040382;28;20033;-31
2024/03/13 03:51:19;;;;;;;9.55;6.28;;;10.60;99.90;;;;;;5039777;28;20678;-34
2024/03/13 03:53:44;;;;;;;10.05;6.40;;;10.60;99.90;;;;;;5039820;28;20370;-36
2024/03/13 03:56:12;;;;;;;7.60;6.03;;;10.60;99.90;;;;;;5040527;28;20036;-35
2024/03/13 03:58:38;;;;;;;7.68;6.10;;;10.60;99.90;;;;;;5039754;28;20033;-34
2024/03/13 04:01:04;;;;;;;7.55;6.07;;;10.60;99.90;;;;;;5039275;28;20563;-32
2024/03/13 04:03:29;;;;;;;6.80;5.65;;;10.60;99.90;;;;;;5039600;28;20487;-32
2024/03/13 04:05:57;;;;;;;6.82;6.13;;;10.60;99.90;;;;;;5040773;28;20024;-31
2024/03/13 04:08:25;;;;;;;6.97;6.22;;;10.70;99.90;;;;;;5038501;28;20053;-35
2024/03/13 04:10:54;;;;;;;8.73;6.05;;;10.70;99.90;;;;;;5040554;28;20060;-35
2024/03/13 04:13:21;;;;;;;7.22;6.35;;;10.70;99.90;;;;;;5040153;28;20112;-29
2024/03/13 04:15:50;;;;;;;8.15;6.75;;;10.70;99.90;;;;;;5039434;28;20049;-34
2024/03/13 04:18:17;;;;;;;7.75;6.35;;;10.70;99.90;;;;;;5039870;28;20043;-32
2024/03/13 04:20:45;;;;;;;7.10;5.88;;;10.70;99.90;;;;;;5039135;28;20045;-33
2024/03/13 04:23:13;;;;;;;7.22;6.40;;;10.70;99.90;;;;;;5039738;28;20413;-37
2024/03/13 04:25:40;;;;;;;7.47;6.68;;;10.70;99.90;;;;;;5039121;28;20112;-34
2024/03/13 04:28:07;;;;;;;7.22;6.28;;;10.70;99.90;;;;;;5038371;28;20032;-36
2024/03/13 04:30:33;;;;;;;7.07;5.90;;;10.70;99.90;;;;;;5037961;28;20670;-34
2024/03/13 04:33:01;;;;;;;7.18;6.47;;;10.70;99.90;;;;;;5038380;28;20040;-33
2024/03/13 04:35:26;;;;;;;7.18;6.43;;;10.80;99.90;;;;;;5037030;28;20044;-33
2024/03/13 04:37:52;;;;;;;6.20;5.60;;;10.80;99.90;;;;;;5038532;28;20035;-31
2024/03/13 04:40:22;;;;;;;7.53;6.28;;;10.80;99.90;;;;;;5038149;28;20040;-33
2024/03/13 04:42:48;;;;;;;7.95;6.30;;;10.80;99.90;;;;;;5038889;28;20029;-31
2024/03/13 04:45:14;;;;;;;7.65;6.70;;;10.80;99.90;;;;;;5039463;28;20166;-33
2024/03/13 04:47:39;;;;;;;7.32;6.57;;;10.80;99.90;;;;;;5039147;28;20769;-30
2024/03/13 04:50:08;;;;;;;7.07;6.22;;;10.80;99.90;;;;;;5038625;28;20021;-34
2024/03/13 04:52:34;;;;;;;7.25;6.50;;;10.80;99.90;;;;;;5039371;28;20032;-33
2024/03/13 04:54:59;;;;;;;8.10;6.93;;;10.80;99.90;;;;;;5039889;28;20490;-33
2024/03/13 04:57:25;;;;;;;8.90;6.65;;;10.80;99.90;;;;;;5038326;28;20116;-32
2024/03/13 04:59:50;;;;;;;8.15;6.32;;;10.90;99.90;;;;;;5043771;28;20020;-32
2024/03/13 05:02:16;;;;;;;7.57;6.70;;;10.90;99.90;;;;;;5043820;28;20132;-31
2024/03/13 05:04:44;;;;;;;7.88;6.72;;;10.90;99.90;;;;;;5042880;28;20075;-36
2024/03/13 05:07:13;;;;;;;7.93;6.57;;;10.90;99.90;;;;;;5043568;28;20051;-34
2024/03/13 05:09:44;;;;;;;7.53;6.60;;;10.90;99.90;;;;;;5044742;28;20033;-33
2024/03/13 05:12:12;;;;;;;8.25;7.05;;;10.90;99.90;;;;;;5043667;28;20044;-33
2024/03/13 05:14:37;;;;;;;7.82;6.55;;;10.90;99.90;;;;;;5044921;28;20029;-32
2024/03/13 05:17:04;;;;;;;8.60;6.82;;;11.00;99.90;;;;;;5043848;28;20511;-32
2024/03/13 05:19:30;;;;;;;10.13;6.95;;;11.00;99.90;;;;;;5044091;28;20041;-33
2024/03/13 05:21:57;;;;;;;8.18;6.47;;;11.00;99.90;;;;;;5044190;28;20025;-31
2024/03/13 05:24:24;;;;;;;8.02;7.10;;;11.00;99.90;;;;;;5042877;28;20044;-35
2024/03/13 05:26:50;;;;;;;6.78;6.07;;;11.00;99.90;;;;;;5043877;28;20183;-35
2024/03/13 05:29:16;;;;;;;10.15;6.93;;;11.10;99.90;;;;;;5043537;28;20025;-36
2024/03/13 05:31:41;;;;;;;6.63;5.90;;;11.10;99.90;;;;;;5042962;28;20028;-38
2024/03/13 05:34:11;;;;;;;7.65;5.78;;;11.10;99.90;;;;;;5043453;28;20036;-33
2024/03/13 05:36:38;;;;;;;6.60;5.90;;;11.10;99.90;;;;;;5042957;28;20017;-37
2024/03/13 05:39:05;;;;;;;5.80;5.20;;;11.10;99.90;;;;;;5042523;28;20795;-37
2024/03/13 05:41:31;;;;;;;5.18;4.68;;;11.10;99.90;;;;;;5043467;28;20120;-37
2024/03/13 05:43:57;;;;;;;5.47;4.95;;;11.10;99.90;;;;;;5043803;28;20071;-37
2024/03/13 05:46:22;;;;;;;5.85;4.93;;;11.20;99.90;;;;;;5042807;28;20067;-35
2024/03/13 05:48:48;;;;;;;6.35;4.47;;;11.20;99.90;;;;;;5043387;28;20029;-35
2024/03/13 05:51:14;;;;;;;5.70;4.68;;;11.20;99.90;;;;;;5043584;28;20029;-36
2024/03/13 05:53:40;;;;;;;5.10;4.40;;;11.20;99.90;;;;;;5042744;28;20020;-35
2024/03/13 05:56:05;;;;;;;4.30;3.75;;;11.20;99.90;;;;;;5043119;28;20027;-36
2024/03/13 05:58:31;;;;;;;5.00;4.22;;;11.20;99.90;;;;;;5042407;28;20770;-32
2024/03/13 06:00:57;;;;;;;6.07;4.25;;;11.30;99.90;;;;;;5042737;28;20021;-33
2024/03/13 06:03:25;;;;;;;5.50;4.35;;;11.20;99.90;;;;;;5042271;28;20060;-32
2024/03/13 06:05:51;;;;;;;5.22;4.35;;;11.20;99.90;;;;;;5043766;28;20031;-34
2024/03/13 06:08:17;;;;;;;4.25;3.85;;;11.20;99.90;;;;;;5042538;28;20492;-33
2024/03/13 06:10:42;;;;;;;4.32;3.75;;;11.20;99.90;;;;;;5043211;28;20444;-31
2024/03/13 06:13:08;;;;;;;6.10;3.72;;;11.20;99.90;;;;;;5042647;28;20468;-30
2024/03/13 06:15:34;;;;;;;3.90;3.40;;;11.30;99.90;;;;;;5042672;28;20127;-33
2024/03/13 06:17:59;;;;;;;4.55;4.05;;;11.30;99.90;;;;;;5042437;28;20104;-32
2024/03/13 06:20:25;;;;;;;3.75;3.45;;;11.30;99.90;;;;;;5042351;28;20021;-34
2024/03/13 06:22:51;;;;;;;5.40;3.72;;;11.30;99.90;;;;;;5043343;28;20086;-32
2024/03/13 06:25:18;;;;;;;4.55;3.50;;;11.30;99.90;;;;;;5042088;28;20024;-33
2024/03/13 06:27:44;;;;;;;3.50;3.20;;;11.30;99.90;;;;;;5042306;28;20029;-37
2024/03/13 06:30:12;;;;;;;3.35;3.05;;;11.30;99.90;;;;;;5042966;28;20017;-33
2024/03/13 06:32:38;;;;;;;3.50;3.20;;;11.30;99.90;;;;;;5043196;28;20029;-32
2024/03/13 06:35:06;;;;;;;3.83;3.42;;;11.30;99.90;;;;;;5042552;28;20074;-31
2024/03/13 06:37:33;;;;;;;4.13;3.05;;;11.30;99.90;;;;;;5040869;28;20147;-33
2024/03/13 06:39:59;;;;;;;3.70;3.15;;;11.30;99.90;;;;;;5040890;28;20029;-35
2024/03/13 06:42:25;;;;;;;3.42;3.13;;;11.40;99.90;;;;;;5041452;28;20060;-35
2024/03/13 06:44:51;;;;;;;3.08;2.78;;;11.40;99.90;;;;;;5041602;28;20032;-36
2024/03/13 06:47:17;;;;;;;3.10;2.80;;;11.40;99.90;;;;;;5041680;28;20028;-35
2024/03/13 06:49:45;;;;;;;2.95;2.65;;;11.40;99.90;;;;;;5040556;28;20079;-34
2024/03/13 06:52:14;;;;;;;2.92;2.65;;;11.40;99.90;;;;;;5042253;28;20461;-32
2024/03/13 06:54:44;;;;;;;2.42;2.22;;;11.40;99.90;;;;;;5041145;28;20028;-34
2024/03/13 06:57:09;;;;;;;2.65;2.38;;;11.40;99.90;;;;;;5040713;28;20017;-32
2024/03/13 06:59:44;;;;;;;2.85;2.55;;;11.40;99.90;;;;;;5040845;28;20075;-36
2024/03/13 07:02:13;;;;;;;2.38;2.17;;;11.40;99.90;;;;;;5041313;28;20444;-35
2024/03/13 07:04:38;;;;;;;2.25;2.05;;;11.40;99.90;;;;;;5040337;28;20040;-37
2024/03/13 07:07:05;;;;;;;3.28;2.55;;;11.40;99.90;;;;;;5039312;28;20024;-35
2024/03/13 07:09:31;;;;;;;2.58;2.38;;;11.40;99.90;;;;;;5038868;28;20112;-34
2024/03/13 07:11:57;;;;;;;2.55;2.35;;;11.40;99.90;;;;;;5039647;28;20733;-36
2024/03/13 07:14:23;;;;;;;2.85;2.58;;;11.40;99.90;;;;;;5038942;28;20086;-33
2024/03/13 07:16:49;;;;;;;3.70;2.90;;;11.40;99.90;;;;;;5039395;28;20033;-30
2024/03/13 07:19:15;;;;;;;3.63;2.58;;;11.50;99.90;;;;;;5039281;28;20035;-33
2024/03/13 07:21:41;;;;;;;2.83;2.58;;;11.50;99.90;;;;;;5039754;28;20025;-35
2024/03/13 07:24:07;;;;;;;3.30;2.95;;;11.50;99.90;;;;;;5041252;28;20044;-35
2024/03/13 07:26:33;;;;;;;3.85;2.90;;;11.50;99.90;;;;;;5041215;28;20032;-32
2024/03/13 07:29:04;;;;;;;3.35;3.05;;;11.50;99.90;;;;;;5042926;28;20067;-34
2024/03/13 07:31:29;;;;;;;2.88;2.58;;;11.50;99.90;;;;;;5040911;28;20807;-35
2024/03/13 07:33:56;;;;;;;3.92;2.97;;;11.50;99.90;;;;;;5042341;28;20029;-32
2024/03/13 07:36:22;;;;;;;4.60;3.08;;;11.50;99.90;;;;;;5041697;28;20048;-33
2024/03/13 07:38:50;;;;;;;3.45;3.15;;;11.60;99.90;;;;;;5041161;28;20421;-35
2024/03/13 07:41:16;;;;;;;4.43;3.53;;;11.60;99.90;;;;;;5041388;28;20342;-34
2024/03/13 07:43:42;;;;;;;5.90;3.60;;;11.50;99.90;;;;;;5041884;28;20537;-34
2024/03/13 07:46:11;;;;;;;3.95;3.53;;;11.60;99.90;;;;;;5040998;28;20036;-34
2024/03/13 07:48:41;;;;;;;3.95;3.65;;;11.60;99.90;;;;;;5040492;28;20029;-30
2024/03/13 07:51:12;;;;;;;4.20;3.55;;;11.60;99.90;;;;;;5040187;28;20890;-35
2024/03/13 07:53:38;;;;;;;4.63;4.00;;;11.60;99.90;;;;;;5041645;28;20645;-33
2024/03/13 07:56:05;;;;;;;4.55;4.15;;;11.60;99.90;;;;;;5041283;28;20770;-31
2024/03/13 07:58:31;;;;;;;4.05;3.65;;;11.70;99.90;;;;;;5029339;28;20052;-31
2024/03/13 08:00:57;;;;;;;4.22;3.83;;;11.70;99.90;;;;;;5039756;28;20021;-33
2024/03/13 08:03:22;;;;;;;4.40;4.00;;;11.70;99.90;;;;;;5040271;28;20060;-34
2024/03/13 08:05:48;;;;;;;4.43;4.00;;;11.70;99.90;;;;;;5039933;28;20120;-35
2024/03/13 08:08:14;;;;;;;4.32;3.92;;;11.80;99.90;;;;;;5040093;28;20053;-33
2024/03/13 08:10:40;;;;;;;4.30;3.90;;;11.80;99.90;;;;;;5040018;28;20029;-34
2024/03/13 08:13:06;;;;;;;4.57;4.10;;;11.80;99.90;;;;;;5038965;28;20029;-34
2024/03/13 08:15:32;;;;;;;4.25;3.70;;;11.80;99.90;;;;;;5039918;28;20090;-35
2024/03/13 08:17:58;;;;;;;5.22;3.67;;;11.80;99.90;;;;;;5039696;28;20044;-31
2024/03/13 08:20:24;;;;;;;4.60;4.10;;;11.80;99.90;;;;;;5038527;28;20021;-31
2024/03/13 08:22:50;;;;;;;4.68;4.13;;;11.90;99.90;;;;;;5039892;28;20037;-33
2024/03/13 08:25:20;;;;;;;5.47;4.50;;;11.90;99.90;;;;;;5039748;28;20416;-34
2024/03/13 08:27:46;;;;;;;5.00;4.50;;;11.90;99.90;;;;;;5038464;28;20029;-34
2024/03/13 08:30:20;;;;;;;4.90;4.30;;;11.90;99.90;;;;;;5039756;28;20025;-33
2024/03/13 08:32:49;;;;;;;5.85;4.15;;;12.00;99.90;;;;;;5039987;28;20032;-31
2024/03/13 08:35:15;;;;;;;5.13;4.40;;;12.00;99.90;;;;;;5038691;28;20033;-34
2024/03/13 08:37:43;;;;;;;5.47;4.63;;;12.00;99.90;;;;;;5038140;28;20025;-33
2024/03/13 08:40:11;;;;;;;6.03;4.32;;;12.00;99.90;;;;;;5038577;28;20028;-36
2024/03/13 08:42:40;;;;;;;5.07;4.57;;;12.00;99.90;;;;;;5036954;28;20087;-32
2024/03/13 08:45:10;;;;;;;4.70;4.30;;;12.00;99.90;;;;;;5026453;28;20036;-35
2024/03/13 08:47:38;;;;;;;4.60;4.10;;;12.00;99.90;;;;;;5037097;28;20020;-32
2024/03/13 08:50:06;;;;;;;4.65;4.25;;;12.00;99.90;;;;;;5036422;28;20025;-33
2024/03/13 08:52:34;;;;;;;4.43;4.03;;;12.00;99.90;;;;;;5038029;28;20028;-34
2024/03/13 08:55:00;;;;;;;5.22;4.22;;;12.00;99.90;;;;;;5033801;28;20025;-34
2024/03/13 08:57:26;;;;;;;4.10;3.70;;;12.00;99.90;;;;;;5038855;28;20140;-33
2024/03/13 08:59:52;;;;;;;4.35;3.80;;;12.10;99.90;;;;;;5039141;28;20078;-35
2024/03/13 09:02:17;;;;;;;5.45;4.13;;;12.10;99.90;;;;;;5038166;28;20120;-31
2024/03/13 09:04:43;;;;;;;4.35;3.80;;;12.10;99.90;;;;;;5039118;28;20029;-33
2024/03/13 09:07:10;;;;;;;4.32;3.92;;;12.10;99.90;;;;;;5039658;28;20638;-36
2024/03/13 09:09:54;;;;;;;4.65;3.67;;;12.10;99.90;;;;;;5038632;28;20056;-38
2024/03/13 09:12:20;;;;;;;4.15;3.28;;;12.10;99.90;;;;;;5019180;28;20144;-35
2024/03/13 09:14:46;;;;;;;3.40;3.10;;;12.10;99.90;;;;;;5033809;28;20021;-34
2024/03/13 09:17:12;;;;;;;4.05;3.00;;;12.10;99.90;;;;;;5038011;28;20025;-30
2024/03/13 09:19:38;;;;;;;3.30;3.00;;;12.10;99.90;;;;;;5038815;28;20131;-34
2024/03/13 09:22:04;;;;;;;4.05;3.30;;;12.10;99.90;;;;;;5037544;28;20028;-34
2024/03/13 09:24:30;;;;;;;3.05;2.75;;;12.10;99.90;;;;;;5039062;28;20021;-31
2024/03/13 09:26:56;;;;;;;2.92;2.47;;;12.20;99.90;;;;;;5039893;28;20040;-35
2024/03/13 09:29:23;;;;;;;2.85;2.47;;;12.20;99.90;;;;;;5039160;28;20117;-33
2024/03/13 09:31:48;;;;;;;3.28;2.70;;;12.20;99.90;;;;;;5039263;28;20111;-31
2024/03/13 09:34:14;;;;;;;3.90;2.63;;;12.20;99.90;;;;;;5039855;28;20024;-34
2024/03/13 09:36:39;;;;;;;2.83;2.50;;;12.20;99.90;;;;;;5039193;28;20498;-31
2024/03/13 09:39:06;;;;;;;4.32;2.60;;;12.30;99.90;;;;;;5038600;28;20147;-31
2024/03/13 09:41:34;;;;;;;2.40;2.03;;;12.30;99.90;;;;;;5039000;28;20044;-33
2024/03/13 09:44:01;;;;;;;3.10;2.03;;;12.30;99.90;;;;;;5040308;28;20051;-31
2024/03/13 09:46:27;;;;;;;2.30;2.10;;;12.40;99.90;;;;;;5042276;28;20029;-34
2024/03/13 09:48:55;;;;;;;2.25;2.03;;;12.40;99.90;;;;;;5043459;28;20040;-32
2024/03/13 09:51:22;;;;;;;2.20;2.00;;;12.50;99.90;;;;;;5042063;28;20017;-31
2024/03/13 09:53:49;;;;;;;3.47;2.40;;;12.50;99.90;;;;;;5043359;28;20052;-33
2024/03/13 09:56:19;;;;;;;2.22;2.03;;;12.50;99.90;;;;;;5042734;28;20025;-33
2024/03/13 09:58:49;;;;;;;5.00;2.30;;;12.50;99.90;;;;;;5042444;28;20056;-32
2024/03/13 10:01:27;;;;;;;2.75;2.38;;;12.50;99.90;;;;;;5043070;28;20025;-34
2024/03/13 10:04:10;;;;;;;4.15;2.50;;;12.50;99.90;;;;;;5043004;28;20028;-33
2024/03/13 10:06:40;;;;;;;3.75;2.60;;;12.50;99.90;;;;;;5041690;28;20112;-35
2024/03/13 10:09:13;;;;;;;3.67;3.13;;;12.50;99.90;;;;;;5043176;28;20148;-35
2024/03/13 10:11:45;;;;;;;4.25;3.40;;;12.60;99.90;;;;;;5042726;28;20048;-34
2024/03/13 10:14:12;;;;;;;5.32;3.65;;;12.60;99.90;;;;;;5042061;28;20029;-33
2024/03/13 10:16:42;;;;;;;6.90;3.70;;;12.60;99.90;;;;;;5042865;28;20128;-32
2024/03/13 10:19:16;;;;;;;4.72;4.10;;;12.60;99.90;;;;;;5042434;28;20037;-35
2024/03/13 10:21:46;;;;;;;5.68;4.35;;;12.70;99.90;;;;;;5041996;28;20049;-32
2024/03/13 10:24:13;;;;;;;7.55;4.63;;;12.60;99.90;;;;;;5042440;28;20036;-37
2024/03/13 10:26:43;;;;;;;8.85;5.45;;;12.60;99.90;;;;;;5041517;28;20063;-37
2024/03/13 10:29:10;;;;;;;8.25;5.85;;;12.60;99.90;;;;;;5042288;28;20119;-31
2024/03/13 10:31:36;;;;;;;9.73;6.03;;;12.60;99.90;;;;;;5041767;28;20028;-33
2024/03/13 10:34:02;;;;;;;9.00;6.32;;;12.60;99.90;;;;;;5041606;28;20025;-34
2024/03/13 10:36:29;;;;;;;10.55;6.85;;;12.60;99.90;;;;;;5041701;28;20028;-36
2024/03/13 10:39:01;;;;;;;8.90;6.57;;;12.60;99.90;;;;;;5042247;28;20393;-35
2024/03/13 10:41:30;;;;;;;10.38;6.85;;;12.60;99.90;;;;;;5041489;28;20484;-32
2024/03/13 10:44:00;;;;;;;10.50;6.43;;;12.50;99.90;;;;;;5041813;28;20071;-34
2024/03/13 10:46:26;;;;;;;10.65;7.20;;;12.60;99.90;;;;;;5041417;28;20075;-32
2024/03/13 10:48:52;;;;;;;10.25;6.85;;;12.60;99.90;;;;;;5040891;28;20040;-31
2024/03/13 10:51:20;;;;;;;10.13;7.15;;;12.60;99.90;;;;;;5042326;28;20033;-31
2024/03/13 10:53:49;;;;;;;10.60;7.25;;;12.60;99.90;;;;;;5041774;28;20071;-32
2024/03/13 10:56:17;;;;;;;9.70;6.57;;;12.60;99.90;;;;;;5040550;28;20053;-33
2024/03/13 10:58:45;;;;;;;8.52;6.15;;;12.60;99.90;;;;;;5041726;28;20033;-33
2024/03/13 11:01:17;;;;;;;9.30;6.28;;;12.70;99.90;;;;;;5042149;28;20778;-34
2024/03/13 11:03:46;;;;;;;;;;;12.70;99.90;;;;;;5041262;28;20036;-34
2024/03/13 11:06:15;;;;;;;8.57;6.18;;;12.80;99.90;;;;;;5041793;28;19912;-31
2024/03/13 11:08:41;;;;;;;9.40;6.30;;;12.80;99.90;;;;;;5040431;28;20071;-35
2024/03/13 11:11:13;;;;;;;9.45;6.78;;;12.90;99.90;;;;;;5041673;28;20041;-34
2024/03/13 11:13:48;;;;;;;10.43;6.65;;;13.00;99.90;;;;;;5041776;28;20115;-35
2024/03/13 11:16:15;;;;;;;10.10;6.85;;;13.00;99.90;;;;;;5041261;28;20025;-34
2024/03/13 11:18:45;;;;;;;10.23;6.97;;;13.10;99.90;;;;;;5040870;28;20040;-31
2024/03/13 11:21:18;;;;;;;8.35;7.10;;;13.10;99.90;;;;;;5041415;28;20025;-35
2024/03/13 11:24:02;;;;;;;8.68;6.75;;;13.10;99.90;;;;;;5039314;28;20053;-33
2024/03/13 11:26:34;;;;;;;7.95;6.55;;;13.10;99.90;;;;;;5041142;28;20029;-32
2024/03/13 11:29:02;;;;;;;8.52;6.20;;;13.10;99.90;;;;;;5040922;28;20025;-36
2024/03/13 11:31:31;;;;;;;7.95;6.72;;;13.10;99.90;;;;;;5040429;28;20137;-34
2024/03/13 11:33:58;;;;;;;6.90;6.18;;;13.10;99.90;;;;;;5040860;28;20112;-37
2024/03/13 11:36:25;;;;;;;7.65;6.50;;;13.20;99.90;;;;;;5040518;28;20032;-35
2024/03/13 11:38:51;;;;;;;7.05;6.28;;;13.30;99.90;;;;;;5040098;28;20037;-34
2024/03/13 11:41:16;;;;;;;8.65;6.15;;;13.30;99.90;;;;;;5041036;28;20048;-33
2024/03/13 11:43:42;;;;;;;9.05;6.55;;;13.30;99.90;;;;;;5040259;28;20027;-31
2024/03/13 11:46:11;;;;;;;10.32;6.60;;;13.30;99.90;;;;;;5040391;28;20013;-37
2024/03/13 11:48:37;;;;;;;8.88;6.60;;;13.30;99.90;;;;;;5040493;28;20041;-34
2024/03/13 11:51:06;;;;;;;9.77;6.43;;;13.20;99.90;;;;;;5040492;28;20033;-36
2024/03/13 11:53:36;;;;;;;7.88;5.95;;;13.20;99.90;;;;;;5040273;28;20052;-32
2024/03/13 11:56:05;;;;;;;9.95;6.43;;;13.20;99.90;;;;;;5036749;28;20075;-32
2024/03/13 11:58:33;;;;;;;8.30;6.25;;;13.10;99.90;;;;;;5039868;28;20064;-34
2024/03/13 12:00:59;;;;;;;10.27;6.90;;;13.20;99.90;;;;;;5040063;28;20495;-31
2024/03/13 12:03:34;;;;;;;8.40;6.70;;;13.20;99.90;;;;;;5040069;28;20761;-32
2024/03/13 12:06:00;;;;;;;7.50;6.57;;;13.20;99.90;;;;;;5039870;28;20075;-31
2024/03/13 12:08:29;;;;;;;7.40;6.70;;;13.20;99.90;;;;;;5039503;28;20155;-35
2024/03/13 12:10:55;;;;;;;6.97;6.15;;;13.20;99.90;;;;;;5040349;28;20145;-34
2024/03/13 12:13:21;;;;;;;8.20;7.10;;;13.30;99.90;;;;;;5039704;28;20751;-35
2024/03/13 12:15:47;;;;;;;8.90;7.30;;;13.20;99.90;;;;;;5040322;28;20448;-36
2024/03/13 12:18:25;;;;;;;8.98;7.57;;;13.20;99.90;;;;;;5040441;28;20043;-30
2024/03/13 12:20:51;;;;;;;9.98;7.13;;;13.30;99.90;;;;;;5039594;28;20025;-32
2024/03/13 12:23:23;;;;;;;9.02;7.18;;;13.30;99.90;;;;;;5039958;28;20035;-30
2024/03/13 12:25:49;;;;;;;10.40;7.80;;;13.30;99.90;;;;;;5040316;28;20092;-36
2024/03/13 12:28:21;;;;;;;9.23;7.65;;;13.30;99.90;;;;;;5039929;28;20086;-34
2024/03/13 12:30:48;;;;;;;7.57;6.70;;;13.30;99.90;;;;;;5040090;28;20125;-36
2024/03/13 12:33:14;;;;;;;10.43;7.38;;;13.30;99.90;;;;;;5039776;28;20040;-33
2024/03/13 12:35:49;;;;;;;11.27;7.78;;;13.30;99.90;;;;;;5040147;28;20017;-35
2024/03/13 12:38:15;;;;;;;8.23;7.43;;;13.30;99.90;;;;;;5040432;28;20123;-31
2024/03/13 12:40:42;;;;;;;8.20;7.40;;;13.30;99.90;;;;;;5040015;28;20017;-32
2024/03/13 12:43:10;;;;;;;8.75;7.85;;;13.40;99.90;;;;;;5039793;28;20041;-35
2024/03/13 12:45:37;;;;;;;9.05;8.15;;;13.40;99.90;;;;;;5039990;28;20480;-31
2024/03/13 12:48:03;;;;;;;9.05;8.05;;;13.40;99.90;;;;;;5039401;28;20036;-32
2024/03/13 12:50:28;;;;;;;10.70;8.77;;;13.40;99.90;;;;;;5039966;28;20094;-32
2024/03/13 12:52:58;;;;;;;8.75;7.88;;;13.40;99.90;;;;;;5040072;28;20558;-35
2024/03/13 12:55:24;;;;;;;11.10;8.93;;;13.40;99.90;;;;;;5039399;28;20057;-34
2024/03/13 12:57:52;;;;;;;9.35;8.13;;;13.40;99.90;;;;;;5040131;28;20116;-32
2024/03/13 13:00:20;;;;;;;10.60;8.35;;;13.40;99.90;;;;;;5040052;28;20064;-29
2024/03/13 13:02:47;;;;;;;10.13;8.68;;;13.40;99.90;;;;;;5039219;28;20037;-32
2024/03/13 13:05:14;;;;;;;10.38;8.70;;;13.40;99.90;;;;;;5039899;28;20825;-36